createdAt,value
2022-11-15T00:00:38.426Z,23.00
2022-11-15T00:03:30.039Z,24.00
2022-11-15T00:09:09.583Z,28.00
2022-11-15T00:11:59.678Z,24.00
2022-11-15T00:14:50.199Z,25.20
2022-11-15T00:17:40.637Z,30.00
2022-11-15T00:20:31.088Z,155.20
2022-11-15T00:23:21.489Z,32.20
2022-11-15T00:26:14.024Z,29.00
2022-11-15T00:29:04.111Z,24.10
2022-11-15T00:31:54.620Z,24.70
2022-11-15T00:34:45.105Z,25.90
2022-11-15T00:37:35.461Z,24.50
2022-11-15T00:40:25.821Z,23.60
2022-11-15T00:43:16.064Z,24.80
2022-11-15T00:46:05.925Z,24.30
2022-11-15T00:48:56.087Z,23.00
2022-11-15T00:51:46.433Z,22.30
2022-11-15T00:54:36.977Z,24.30
2022-11-15T00:57:27.512Z,21.00
2022-11-15T01:00:18.913Z,22.00
2022-11-15T01:03:09.233Z,25.20
2022-11-15T01:06:02.721Z,22.90
2022-11-15T01:08:53.070Z,24.70
2022-11-15T01:11:43.670Z,23.00
2022-11-15T01:14:34.092Z,23.80
2022-11-15T01:17:24.561Z,25.50
2022-11-15T01:20:16.005Z,25.20
2022-11-15T01:23:06.223Z,25.40
2022-11-15T01:25:56.677Z,23.60
2022-11-15T01:28:46.853Z,25.40
2022-11-15T01:31:36.813Z,22.70
2022-11-15T01:34:27.317Z,26.50
2022-11-15T01:37:17.806Z,25.40
2022-11-15T01:40:10.313Z,25.30
2022-11-15T01:43:00.605Z,24.50
2022-11-15T01:45:52.282Z,25.40
2022-11-15T01:48:42.460Z,29.20
2022-11-15T01:51:34.147Z,25.40
2022-11-15T01:54:24.905Z,27.30
2022-11-15T01:57:15.874Z,22.30
2022-11-15T02:00:07.290Z,27.10
2022-11-15T02:02:57.785Z,28.90
2022-11-15T02:05:48.943Z,26.50
2022-11-15T02:08:39.462Z,31.60
2022-11-15T02:11:30.094Z,35.80
2022-11-15T02:14:20.664Z,31.00
2022-11-15T02:17:28.064Z,31.60
2022-11-15T02:20:45.893Z,26.80
2022-11-15T02:24:11.662Z,30.10
2022-11-15T02:27:38.549Z,26.00
2022-11-15T02:30:34.795Z,28.20
2022-11-15T02:33:31.697Z,26.10
2022-11-15T02:36:27.434Z,22.40
2022-11-15T02:39:21.523Z,25.80
2022-11-15T02:42:27.525Z,23.70
2022-11-15T02:45:19.797Z,23.00
2022-11-15T02:48:10.456Z,23.60
2022-11-15T02:51:00.826Z,25.80
2022-11-15T02:53:51.362Z,22.00
2022-11-15T02:56:41.707Z,25.70
2022-11-15T02:59:55.257Z,24.90
2022-11-15T03:02:54.220Z,26.40
2022-11-15T03:05:46.958Z,24.10
2022-11-15T03:08:40.017Z,22.80
2022-11-15T03:11:30.391Z,26.50
2022-11-15T03:14:23.640Z,25.30
2022-11-15T03:17:17.867Z,25.80
2022-11-15T03:20:09.889Z,27.00
2022-11-15T03:23:03.723Z,24.90
2022-11-15T03:25:54.726Z,24.30
2022-11-15T03:28:45.258Z,24.70
2022-11-15T03:31:50.993Z,27.70
2022-11-15T03:34:43.843Z,28.40
2022-11-15T03:37:37.858Z,26.10
2022-11-15T03:40:30.508Z,26.70
2022-11-15T03:43:25.118Z,26.60
2022-11-15T03:46:16.695Z,29.20
2022-11-15T03:49:08.417Z,29.20
2022-11-15T03:52:00.327Z,26.30
2022-11-15T03:54:54.991Z,26.90
2022-11-15T03:57:45.369Z,29.40
2022-11-15T04:00:35.530Z,28.20
2022-11-15T04:03:26.073Z,28.10
2022-11-15T04:06:16.098Z,31.10
2022-11-15T04:09:06.220Z,25.90
2022-11-15T04:11:56.969Z,26.20
2022-11-15T04:15:07.164Z,26.50
2022-11-15T04:17:58.226Z,25.90
2022-11-15T04:21:06.407Z,31.20
2022-11-15T04:24:19.210Z,32.30
2022-11-15T04:27:09.726Z,32.90
2022-11-15T04:30:00.968Z,34.10
2022-11-15T04:32:51.167Z,35.60
2022-11-15T04:35:41.260Z,32.60
2022-11-15T04:38:31.768Z,35.30
2022-11-15T04:41:22.132Z,34.30
2022-11-15T04:44:12.554Z,32.00
2022-11-15T04:47:02.685Z,31.90
2022-11-15T04:49:53.100Z,34.60
2022-11-15T04:52:43.862Z,31.40
2022-11-15T04:55:34.508Z,29.80
2022-11-15T04:58:24.950Z,30.90
2022-11-15T05:01:16.625Z,33.50
2022-11-15T05:04:20.707Z,30.90
2022-11-15T05:07:10.772Z,31.50
2022-11-15T05:10:00.886Z,28.20
2022-11-15T05:12:51.896Z,32.90
2022-11-15T05:15:41.978Z,30.00
2022-11-15T05:18:32.139Z,30.90
2022-11-15T05:21:22.612Z,33.10
2022-11-15T05:24:13.482Z,34.00
2022-11-15T05:27:04.325Z,34.20
2022-11-15T05:29:54.733Z,31.90
2022-11-15T05:32:48.527Z,33.40
2022-11-15T05:35:39.651Z,33.70
2022-11-15T05:38:29.942Z,32.80
2022-11-15T05:41:21.190Z,33.80
2022-11-15T05:44:12.208Z,35.00
2022-11-15T05:47:02.644Z,32.40
2022-11-15T05:49:53.349Z,31.80
2022-11-15T05:52:43.603Z,33.50
2022-11-15T05:55:33.854Z,32.90
2022-11-15T05:58:24.177Z,35.60
2022-11-15T06:01:14.330Z,32.40
2022-11-15T06:04:05.168Z,31.70
2022-11-15T06:06:56.103Z,33.00
2022-11-15T06:09:46.379Z,30.30
2022-11-15T06:15:27.241Z,32.20
2022-11-15T06:18:17.866Z,31.20
2022-11-15T06:21:08.419Z,34.90
2022-11-15T06:23:58.530Z,34.20
2022-11-15T06:26:48.815Z,34.50
2022-11-15T06:29:38.913Z,36.80
2022-11-15T06:32:31.107Z,39.60
2022-11-15T06:35:21.322Z,39.10
2022-11-15T06:38:12.000Z,36.40
2022-11-15T06:41:06.743Z,37.70
2022-11-15T06:43:57.383Z,38.60
2022-11-15T06:46:47.615Z,42.30
2022-11-15T06:49:38.260Z,39.00
2022-11-15T06:52:33.948Z,41.70
2022-11-15T06:55:24.367Z,44.40
2022-11-15T06:58:14.487Z,48.90
2022-11-15T07:01:05.620Z,51.20
2022-11-15T07:03:56.192Z,45.80
2022-11-15T07:06:46.814Z,46.40
2022-11-15T07:09:37.558Z,48.70
2022-11-15T07:12:28.514Z,50.90
2022-11-15T07:15:19.327Z,46.90
2022-11-15T07:18:09.957Z,43.10
2022-11-15T07:21:02.621Z,44.50
2022-11-15T07:23:53.924Z,41.50
2022-11-15T07:26:44.068Z,40.50
2022-11-15T07:29:35.630Z,37.70
2022-11-15T07:32:25.841Z,38.70
2022-11-15T07:35:17.348Z,38.20
2022-11-15T07:38:07.806Z,34.40
2022-11-15T07:41:03.485Z,34.20
2022-11-15T07:43:57.133Z,30.90
2022-11-15T07:46:47.541Z,31.40
2022-11-15T07:49:37.878Z,24.00
2022-11-15T07:52:28.159Z,20.20
2022-11-15T07:55:18.738Z,19.00
2022-11-15T07:58:09.670Z,17.70
2022-11-15T08:01:00.742Z,15.40
2022-11-15T08:03:51.635Z,15.40
2022-11-15T08:06:42.326Z,17.10
2022-11-15T08:09:33.004Z,15.20
2022-11-15T08:12:24.023Z,15.00
2022-11-15T08:15:14.925Z,14.40
2022-11-15T08:18:07.159Z,15.50
2022-11-15T08:21:00.140Z,14.70
2022-11-15T08:23:50.187Z,15.40
2022-11-15T08:26:40.776Z,15.80
2022-11-15T08:29:31.467Z,18.40
2022-11-15T08:32:21.905Z,17.90
2022-11-15T08:35:12.498Z,18.40
2022-11-15T08:38:02.894Z,17.60
2022-11-15T08:40:54.201Z,18.80
2022-11-15T08:43:44.670Z,17.20
2022-11-15T08:46:36.037Z,16.00
2022-11-15T08:49:26.379Z,17.70
2022-11-15T08:52:17.616Z,16.40
2022-11-15T08:55:10.490Z,14.00
2022-11-15T08:58:02.528Z,14.00
2022-11-15T09:03:43.683Z,9.10
2022-11-15T09:06:34.750Z,8.30
2022-11-15T09:09:25.163Z,10.10
2022-11-15T09:12:15.751Z,9.60
2022-11-15T09:15:07.355Z,10.90
2022-11-15T09:17:57.571Z,10.20
2022-11-15T09:20:49.295Z,11.40
2022-11-15T09:23:39.875Z,10.30
2022-11-15T09:26:30.679Z,9.10
2022-11-15T09:29:21.260Z,7.10
2022-11-15T09:32:11.968Z,8.20
2022-11-15T09:35:02.444Z,6.80
2022-11-15T09:37:56.315Z,6.60
2022-11-15T09:40:47.091Z,5.80
2022-11-15T09:43:41.839Z,6.60
2022-11-15T09:46:38.251Z,5.90
2022-11-15T09:49:22.070Z,5.70
2022-11-15T09:52:09.692Z,6.10
2022-11-15T09:54:57.158Z,6.10
2022-11-15T09:57:34.537Z,6.10
2022-11-15T10:03:15.247Z,6.20
2022-11-15T10:05:48.002Z,6.30
2022-11-15T10:08:28.979Z,5.10
2022-11-15T10:11:35.735Z,5.30
2022-11-15T10:13:55.049Z,5.90
2022-11-15T10:16:43.717Z,4.60
2022-11-15T10:19:20.379Z,5.50
2022-11-15T10:21:55.945Z,4.80
2022-11-15T10:24:30.687Z,5.80
2022-11-15T10:27:02.642Z,4.80
2022-11-15T10:29:34.466Z,4.90
2022-11-15T10:32:06.289Z,5.20
2022-11-15T10:37:08.981Z,4.80
2022-11-15T10:39:40.635Z,4.30
2022-11-15T10:42:29.082Z,5.90
2022-11-15T10:45:00.744Z,4.70
2022-11-15T10:47:38.870Z,5.10
2022-11-15T10:50:32.998Z,4.60
2022-11-15T10:53:05.018Z,5.40
2022-11-15T10:55:36.458Z,4.50
2022-11-15T10:58:09.546Z,4.60
2022-11-15T11:00:41.545Z,4.90
2022-11-15T11:03:29.194Z,5.30
2022-11-15T11:06:10.455Z,4.60
2022-11-15T11:08:41.930Z,4.80
2022-11-15T11:11:13.597Z,4.10
2022-11-15T11:16:25.980Z,4.90
2022-11-15T11:19:02.448Z,5.30
2022-11-15T11:21:40.483Z,4.40
2022-11-15T11:24:13.903Z,4.80
2022-11-15T11:26:51.709Z,4.60
2022-11-15T11:32:03.942Z,4.60
2022-11-15T11:34:52.903Z,5.60
2022-11-15T11:37:30.160Z,4.70
2022-11-15T11:40:18.640Z,5.50
2022-11-15T11:42:59.397Z,5.20
2022-11-15T11:45:51.767Z,4.80
2022-11-15T11:48:30.102Z,4.60
2022-11-15T11:51:06.432Z,5.10
2022-11-15T11:53:41.127Z,4.20
2022-11-15T11:56:19.086Z,4.10
2022-11-15T11:58:53.781Z,4.60
2022-11-15T12:01:27.287Z,4.40
2022-11-15T12:03:59.697Z,4.70
2022-11-15T12:06:34.711Z,4.60
2022-11-15T12:09:09.896Z,4.70
2022-11-15T12:11:50.991Z,4.60
2022-11-15T12:14:29.276Z,4.80
2022-11-15T12:17:01.053Z,4.50
2022-11-15T12:19:32.780Z,4.90
2022-11-15T12:22:07.465Z,4.40
2022-11-15T12:24:42.068Z,4.30
2022-11-15T12:27:21.988Z,4.50
2022-11-15T12:29:59.027Z,4.00
2022-11-15T12:32:32.049Z,3.90
2022-11-15T12:35:04.618Z,4.00
2022-11-15T12:37:58.438Z,4.40
2022-11-15T12:41:02.557Z,4.30
2022-11-15T12:43:42.277Z,4.90
2022-11-15T12:46:22.611Z,5.00
2022-11-15T12:48:59.144Z,4.60
2022-11-15T12:52:07.890Z,5.20
2022-11-15T12:55:01.397Z,4.90
2022-11-15T12:57:41.022Z,5.00
2022-11-15T13:00:45.165Z,4.80
2022-11-15T13:03:27.763Z,5.10
2022-11-15T13:06:11.182Z,4.70
2022-11-15T13:08:50.716Z,5.30
2022-11-15T13:11:47.689Z,4.20
2022-11-15T13:14:52.884Z,5.50
2022-11-15T13:17:33.994Z,5.60
2022-11-15T13:20:30.094Z,4.60
2022-11-15T13:23:10.044Z,5.10
2022-11-15T13:25:57.047Z,4.70
2022-11-15T13:28:32.555Z,4.50
2022-11-15T13:31:05.085Z,5.40
2022-11-15T13:33:37.779Z,5.30
2022-11-15T13:36:10.252Z,4.70
2022-11-15T13:38:45.116Z,3.90
2022-11-15T13:41:21.440Z,4.20
2022-11-15T13:43:53.518Z,4.60
2022-11-15T13:46:25.805Z,5.50
2022-11-15T13:48:58.906Z,5.10
2022-11-15T13:51:35.996Z,4.30
2022-11-15T13:54:10.613Z,4.30
2022-11-15T13:56:42.482Z,6.40
2022-11-15T13:59:16.024Z,4.70
2022-11-15T14:01:47.517Z,4.40
2022-11-15T14:04:22.760Z,4.20
2022-11-15T14:06:55.959Z,5.10
2022-11-15T14:09:39.638Z,4.90
2022-11-15T14:12:29.246Z,5.60
2022-11-15T14:15:01.213Z,7.50
2022-11-15T14:17:45.769Z,8.20
2022-11-15T14:20:31.938Z,8.20
2022-11-15T14:23:04.259Z,7.10
2022-11-15T14:25:36.295Z,11.60
2022-11-15T14:28:34.843Z,8.10
2022-11-15T14:31:13.349Z,7.30
2022-11-15T14:33:45.150Z,8.00
2022-11-15T14:36:17.757Z,9.30
2022-11-15T14:38:49.677Z,8.40
2022-11-15T14:41:26.047Z,8.60
2022-11-15T14:43:57.916Z,8.20
2022-11-15T14:46:30.183Z,7.20
2022-11-15T14:49:02.332Z,7.00
2022-11-15T14:51:34.555Z,6.90
2022-11-15T14:54:06.816Z,6.00
2022-11-15T14:56:38.889Z,6.10
2022-11-15T15:01:41.025Z,5.20
2022-11-15T15:04:15.734Z,5.80
2022-11-15T15:06:50.171Z,5.40
2022-11-15T15:09:28.295Z,6.40
2022-11-15T15:12:05.983Z,5.50
2022-11-15T15:14:39.141Z,5.70
2022-11-15T15:17:16.162Z,7.50
2022-11-15T15:19:52.538Z,6.90
2022-11-15T15:22:26.811Z,7.60
2022-11-15T15:25:11.299Z,7.30
2022-11-15T15:27:44.200Z,8.00
2022-11-15T15:30:22.473Z,7.50
2022-11-15T15:32:55.326Z,8.20
2022-11-15T15:35:34.732Z,8.50
2022-11-15T15:38:07.137Z,8.70
2022-11-15T15:40:40.418Z,8.30
2022-11-15T15:43:14.077Z,9.20
2022-11-15T15:45:46.808Z,8.70
2022-11-15T15:48:20.044Z,9.20
2022-11-15T15:50:53.113Z,9.90
2022-11-15T15:53:25.536Z,9.70
2022-11-15T15:55:57.844Z,11.00
2022-11-15T15:58:30.958Z,11.20
2022-11-15T16:01:04.132Z,12.00
2022-11-15T16:03:36.537Z,13.30
2022-11-15T16:06:23.463Z,13.20
2022-11-15T16:09:14.092Z,14.90
2022-11-15T16:11:48.489Z,15.00
2022-11-15T16:14:21.254Z,15.00
2022-11-15T16:16:53.624Z,15.00
2022-11-15T16:19:26.829Z,15.90
2022-11-15T16:22:00.812Z,14.10
2022-11-15T16:24:37.955Z,14.30
2022-11-15T16:27:13.008Z,14.80
2022-11-15T16:29:45.491Z,14.30
2022-11-15T16:32:18.078Z,12.20
2022-11-15T16:34:51.044Z,14.40
2022-11-15T16:37:26.280Z,11.70
2022-11-15T16:40:02.104Z,9.80
2022-11-15T16:42:36.437Z,11.50
2022-11-15T16:45:11.618Z,12.30
2022-11-15T16:47:44.690Z,12.00
2022-11-15T16:50:32.500Z,10.80
2022-11-15T16:53:06.965Z,11.00
2022-11-15T16:55:39.281Z,10.50
2022-11-15T16:58:13.049Z,11.90
2022-11-15T17:00:46.741Z,10.10
2022-11-15T17:03:19.744Z,10.70
2022-11-15T17:05:55.775Z,11.50
2022-11-15T17:08:32.598Z,10.90
2022-11-15T17:11:09.428Z,11.90
2022-11-15T17:13:40.948Z,12.30
2022-11-15T17:16:17.527Z,12.40
2022-11-15T17:18:53.377Z,12.50
2022-11-15T17:21:33.423Z,11.30
2022-11-15T17:24:05.428Z,13.80
2022-11-15T17:26:40.622Z,13.00
2022-11-15T17:29:12.772Z,13.10
2022-11-15T17:31:46.130Z,14.30
2022-11-15T17:34:17.670Z,13.70
2022-11-15T17:36:49.440Z,13.80
2022-11-15T17:39:21.209Z,14.40
2022-11-15T17:41:53.261Z,13.90
2022-11-15T17:46:54.727Z,14.30
2022-11-15T17:49:26.366Z,13.80
2022-11-15T17:51:58.179Z,13.70
2022-11-15T17:57:00.303Z,16.30
2022-11-15T17:59:32.126Z,13.60
2022-11-15T18:02:04.060Z,13.40
2022-11-15T18:04:35.891Z,13.20
2022-11-15T18:07:07.771Z,12.40
2022-11-15T18:12:10.091Z,14.10
2022-11-15T18:17:11.656Z,12.70
2022-11-15T18:19:43.321Z,11.80
2022-11-15T18:22:15.332Z,10.80
2022-11-15T18:24:47.344Z,12.00
2022-11-15T18:27:19.546Z,12.20
2022-11-15T18:29:51.045Z,9.30
2022-11-15T18:32:22.959Z,10.10
2022-11-15T18:37:24.454Z,10.10
2022-11-15T18:39:56.264Z,9.20
2022-11-15T18:42:28.056Z,9.10
2022-11-15T18:47:48.163Z,9.60
2022-11-15T18:50:32.441Z,9.50
2022-11-15T18:53:04.266Z,9.70
2022-11-15T18:58:06.193Z,9.00
2022-11-15T19:00:38.220Z,10.20
2022-11-15T19:03:09.685Z,8.60
2022-11-15T19:05:41.119Z,8.40
2022-11-15T19:08:12.707Z,9.00
2022-11-15T19:10:44.166Z,9.60
2022-11-15T19:13:15.724Z,9.70
2022-11-15T19:15:47.221Z,9.00
2022-11-15T19:18:19.153Z,9.50
2022-11-15T19:20:50.566Z,8.90
2022-11-15T19:23:22.232Z,8.60
2022-11-15T19:26:01.046Z,8.50
2022-11-15T19:28:35.035Z,8.80
2022-11-15T19:31:10.448Z,8.90
2022-11-15T19:33:49.876Z,9.50
2022-11-15T19:36:24.136Z,8.90
2022-11-15T19:38:55.974Z,8.00
2022-11-15T19:43:57.938Z,8.80
2022-11-15T19:48:59.662Z,9.10
2022-11-15T19:51:31.693Z,9.50
2022-11-15T19:54:06.872Z,9.50
2022-11-15T19:56:38.520Z,9.40
2022-11-15T19:59:11.871Z,8.60
2022-11-15T20:01:43.721Z,9.60
2022-11-15T20:04:15.355Z,8.40
2022-11-15T20:06:47.247Z,9.30
2022-11-15T20:09:19.315Z,9.20
2022-11-15T20:11:50.767Z,9.70
2022-11-15T20:14:24.147Z,9.90
2022-11-15T20:16:55.617Z,9.20
2022-11-15T20:21:57.338Z,9.10
2022-11-15T20:24:28.978Z,8.50
2022-11-15T20:29:30.418Z,10.30
2022-11-15T20:32:02.113Z,9.50
2022-11-15T20:34:33.646Z,9.60
2022-11-15T20:37:05.249Z,10.00
2022-11-15T20:39:36.792Z,10.30
2022-11-15T20:42:08.808Z,9.70
2022-11-15T20:44:40.758Z,9.50
2022-11-15T20:47:12.299Z,11.30
2022-11-15T20:49:44.382Z,9.90
2022-11-15T20:52:16.088Z,10.40
2022-11-15T20:54:48.116Z,11.40
2022-11-15T20:57:19.477Z,10.50
2022-11-15T20:59:51.189Z,10.50
2022-11-15T21:04:52.956Z,10.60
2022-11-15T21:07:24.399Z,9.70
2022-11-15T21:10:13.477Z,9.90
2022-11-15T21:12:45.509Z,9.50
2022-11-15T21:17:46.755Z,9.60
2022-11-15T21:20:18.781Z,10.10
2022-11-15T21:22:50.199Z,10.80
2022-11-15T21:25:21.697Z,10.00
2022-11-15T21:27:53.157Z,11.70
2022-11-15T21:30:24.598Z,10.00
2022-11-15T21:32:56.574Z,12.10
2022-11-15T21:35:28.295Z,11.70
2022-11-15T21:40:29.816Z,11.20
2022-11-15T21:43:01.479Z,10.30
2022-11-15T21:45:33.089Z,11.20
2022-11-15T21:48:04.923Z,12.20
2022-11-15T21:50:36.379Z,12.30
2022-11-15T21:53:07.741Z,10.20
2022-11-15T21:55:42.398Z,11.00
2022-11-15T21:58:13.743Z,10.40
2022-11-15T22:00:59.897Z,11.60
2022-11-15T22:03:31.475Z,11.80
2022-11-15T22:06:02.989Z,11.60
2022-11-15T22:08:34.819Z,11.20
2022-11-15T22:11:06.983Z,11.60
2022-11-15T22:13:38.751Z,11.10
2022-11-15T22:16:11.213Z,12.00
2022-11-15T22:18:43.188Z,11.30
2022-11-15T22:21:15.695Z,10.80
2022-11-15T22:23:47.452Z,10.90
2022-11-15T22:28:55.422Z,11.70
2022-11-15T22:31:27.134Z,10.40
2022-11-15T22:36:42.458Z,11.20
2022-11-15T22:39:20.586Z,10.10
2022-11-15T22:41:53.665Z,12.00
2022-11-15T22:44:25.932Z,10.50
2022-11-15T22:46:57.646Z,10.50
2022-11-15T22:49:29.396Z,9.40
2022-11-15T22:54:32.653Z,9.70
2022-11-15T22:57:05.416Z,9.50
2022-11-15T22:59:37.871Z,10.40
2022-11-15T23:02:09.715Z,10.60
2022-11-15T23:04:41.591Z,11.50
2022-11-15T23:07:13.397Z,9.70
2022-11-15T23:09:49.276Z,11.40
2022-11-15T23:12:41.155Z,11.20
2022-11-15T23:15:13.463Z,13.50
2022-11-15T23:17:45.095Z,11.10
2022-11-15T23:23:06.738Z,11.00
2022-11-15T23:28:08.888Z,9.50
2022-11-15T23:30:58.384Z,9.30
2022-11-15T23:33:47.677Z,10.40
2022-11-15T23:36:20.022Z,8.70
2022-11-15T23:38:52.612Z,9.90
2022-11-15T23:41:25.112Z,10.20
2022-11-15T23:43:57.144Z,10.00
2022-11-15T23:46:29.036Z,9.40
2022-11-15T23:49:00.912Z,10.70
2022-11-15T23:51:32.742Z,11.10
2022-11-15T23:54:04.587Z,11.50
2022-11-15T23:56:36.443Z,9.50
2022-11-15T23:59:08.279Z,10.20
